sensor_id;sensor_type;location;lat;lon;timestamp;temperature;humidity
40932;DHT22;36257;46.052;12.540;2023-05-24T00:00:20;19.40;88.50
40932;DHT22;36257;46.052;12.540;2023-05-24T00:02:47;19.40;88.10
40932;DHT22;36257;46.052;12.540;2023-05-24T00:05:12;19.40;88.00
40932;DHT22;36257;46.052;12.540;2023-05-24T00:11:01;19.40;87.80
40932;DHT22;36257;46.052;12.540;2023-05-24T00:13:27;19.50;87.80
40932;DHT22;36257;46.052;12.540;2023-05-24T00:15:53;19.40;88.10
40932;DHT22;36257;46.052;12.540;2023-05-24T00:18:18;19.40;87.90
40932;DHT22;36257;46.052;12.540;2023-05-24T00:20:44;19.40;87.80
40932;DHT22;36257;46.052;12.540;2023-05-24T00:23:12;19.30;88.00
40932;DHT22;36257;46.052;12.540;2023-05-24T00:25:37;19.20;88.20
40932;DHT22;36257;46.052;12.540;2023-05-24T00:28:03;19.00;88.40
40932;DHT22;36257;46.052;12.540;2023-05-24T00:30:29;19.00;88.80
40932;DHT22;36257;46.052;12.540;2023-05-24T00:32:54;19.00;88.70
40932;DHT22;36257;46.052;12.540;2023-05-24T00:35:20;18.90;88.70
40932;DHT22;36257;46.052;12.540;2023-05-24T00:37:46;18.80;88.80
40932;DHT22;36257;46.052;12.540;2023-05-24T00:40:12;18.80;89.00
40932;DHT22;36257;46.052;12.540;2023-05-24T00:42:38;18.70;88.90
40932;DHT22;36257;46.052;12.540;2023-05-24T00:45:04;18.70;88.90
40932;DHT22;36257;46.052;12.540;2023-05-24T00:47:31;18.80;88.50
40932;DHT22;36257;46.052;12.540;2023-05-24T00:49:57;18.80;88.80
40932;DHT22;36257;46.052;12.540;2023-05-24T00:52:23;18.70;88.90
40932;DHT22;36257;46.052;12.540;2023-05-24T00:54:49;18.70;88.70
40932;DHT22;36257;46.052;12.540;2023-05-24T00:57:15;18.70;88.80
40932;DHT22;36257;46.052;12.540;2023-05-24T00:59:43;18.70;88.90
40932;DHT22;36257;46.052;12.540;2023-05-24T01:02:10;18.70;88.80
40932;DHT22;36257;46.052;12.540;2023-05-24T01:04:36;18.60;89.20
40932;DHT22;36257;46.052;12.540;2023-05-24T01:07:17;18.50;89.10
40932;DHT22;36257;46.052;12.540;2023-05-24T01:09:54;18.50;89.50
40932;DHT22;36257;46.052;12.540;2023-05-24T01:18:27;18.30;90.00
40932;DHT22;36257;46.052;12.540;2023-05-24T01:20:33;18.30;90.00
40932;DHT22;36257;46.052;12.540;2023-05-24T01:28:23;18.10;90.40
40932;DHT22;36257;46.052;12.540;2023-05-24T01:30:50;18.10;90.10
40932;DHT22;36257;46.052;12.540;2023-05-24T01:33:16;18.10;90.10
40932;DHT22;36257;46.052;12.540;2023-05-24T01:35:42;18.10;90.00
40932;DHT22;36257;46.052;12.540;2023-05-24T01:38:08;18.20;90.00
40932;DHT22;36257;46.052;12.540;2023-05-24T01:40:37;18.20;90.10
40932;DHT22;36257;46.052;12.540;2023-05-24T01:43:14;18.20;90.00
40932;DHT22;36257;46.052;12.540;2023-05-24T01:46:05;18.20;90.00
40932;DHT22;36257;46.052;12.540;2023-05-24T01:49:02;18.10;89.80
40932;DHT22;36257;46.052;12.540;2023-05-24T01:51:36;18.20;89.30
40932;DHT22;36257;46.052;12.540;2023-05-24T01:54:03;18.20;89.10
40932;DHT22;36257;46.052;12.540;2023-05-24T01:56:30;18.20;89.00
40932;DHT22;36257;46.052;12.540;2023-05-24T01:58:58;18.20;89.30
40932;DHT22;36257;46.052;12.540;2023-05-24T02:01:25;18.20;89.20
40932;DHT22;36257;46.052;12.540;2023-05-24T02:03:51;18.20;88.20
40932;DHT22;36257;46.052;12.540;2023-05-24T02:06:17;18.30;88.50
40932;DHT22;36257;46.052;12.540;2023-05-24T02:08:42;18.20;88.50
40932;DHT22;36257;46.052;12.540;2023-05-24T02:11:08;18.10;89.20
40932;DHT22;36257;46.052;12.540;2023-05-24T02:13:34;18.10;89.50
40932;DHT22;36257;46.052;12.540;2023-05-24T02:16:00;18.00;89.70
40932;DHT22;36257;46.052;12.540;2023-05-24T02:18:25;17.90;89.90
40932;DHT22;36257;46.052;12.540;2023-05-24T02:20:51;17.80;90.40
40932;DHT22;36257;46.052;12.540;2023-05-24T02:23:17;17.80;90.60
40932;DHT22;36257;46.052;12.540;2023-05-24T02:25:42;17.80;90.50
40932;DHT22;36257;46.052;12.540;2023-05-24T02:28:08;17.70;91.20
40932;DHT22;36257;46.052;12.540;2023-05-24T02:30:34;17.60;91.30
40932;DHT22;36257;46.052;12.540;2023-05-24T02:32:59;17.60;91.40
40932;DHT22;36257;46.052;12.540;2023-05-24T02:35:25;17.50;91.30
40932;DHT22;36257;46.052;12.540;2023-05-24T02:37:51;17.50;91.60
40932;DHT22;36257;46.052;12.540;2023-05-24T02:40:16;17.60;91.60
40932;DHT22;36257;46.052;12.540;2023-05-24T02:42:42;17.60;91.70
40932;DHT22;36257;46.052;12.540;2023-05-24T02:45:08;17.60;91.50
40932;DHT22;36257;46.052;12.540;2023-05-24T02:47:34;17.60;91.30
40932;DHT22;36257;46.052;12.540;2023-05-24T02:49:59;17.60;91.10
40932;DHT22;36257;46.052;12.540;2023-05-24T02:52:25;17.70;90.60
40932;DHT22;36257;46.052;12.540;2023-05-24T02:54:51;17.70;90.20
40932;DHT22;36257;46.052;12.540;2023-05-24T02:57:17;17.80;90.00
40932;DHT22;36257;46.052;12.540;2023-05-24T02:59:42;17.90;89.60
40932;DHT22;36257;46.052;12.540;2023-05-24T03:02:08;17.80;89.90
40932;DHT22;36257;46.052;12.540;2023-05-24T03:04:34;17.80;90.00
40932;DHT22;36257;46.052;12.540;2023-05-24T03:07:00;17.80;89.70
40932;DHT22;36257;46.052;12.540;2023-05-24T03:09:25;17.80;89.80
40932;DHT22;36257;46.052;12.540;2023-05-24T03:11:52;17.80;89.60
40932;DHT22;36257;46.052;12.540;2023-05-24T03:14:19;17.80;89.50
40932;DHT22;36257;46.052;12.540;2023-05-24T03:16:47;17.80;89.50
40932;DHT22;36257;46.052;12.540;2023-05-24T03:19:13;17.80;89.70
40932;DHT22;36257;46.052;12.540;2023-05-24T03:21:39;17.70;89.90
40932;DHT22;36257;46.052;12.540;2023-05-24T03:24:05;17.70;90.00
40932;DHT22;36257;46.052;12.540;2023-05-24T03:26:30;17.70;90.00
40932;DHT22;36257;46.052;12.540;2023-05-24T03:28:56;17.80;89.70
40932;DHT22;36257;46.052;12.540;2023-05-24T03:31:22;17.80;89.60
40932;DHT22;36257;46.052;12.540;2023-05-24T03:33:51;17.80;89.80
40932;DHT22;36257;46.052;12.540;2023-05-24T03:36:17;17.80;89.90
40932;DHT22;36257;46.052;12.540;2023-05-24T03:38:42;17.90;90.00
40932;DHT22;36257;46.052;12.540;2023-05-24T03:41:08;17.80;90.00
40932;DHT22;36257;46.052;12.540;2023-05-24T03:43:34;17.80;90.30
40932;DHT22;36257;46.052;12.540;2023-05-24T03:45:59;17.80;90.40
40932;DHT22;36257;46.052;12.540;2023-05-24T03:48:25;17.80;89.90
40932;DHT22;36257;46.052;12.540;2023-05-24T03:50:51;17.80;90.00
40932;DHT22;36257;46.052;12.540;2023-05-24T03:53:16;17.80;90.10
40932;DHT22;36257;46.052;12.540;2023-05-24T03:55:42;17.80;90.10
40932;DHT22;36257;46.052;12.540;2023-05-24T03:58:08;17.70;90.50
40932;DHT22;36257;46.052;12.540;2023-05-24T04:00:33;17.60;90.90
40932;DHT22;36257;46.052;12.540;2023-05-24T04:02:59;17.60;91.30
40932;DHT22;36257;46.052;12.540;2023-05-24T04:05:25;17.60;91.00
40932;DHT22;36257;46.052;12.540;2023-05-24T04:07:54;17.60;90.60
40932;DHT22;36257;46.052;12.540;2023-05-24T04:10:20;17.70;90.50
40932;DHT22;36257;46.052;12.540;2023-05-24T04:12:46;17.70;90.90
40932;DHT22;36257;46.052;12.540;2023-05-24T04:15:11;17.70;90.90
40932;DHT22;36257;46.052;12.540;2023-05-24T04:17:44;17.80;90.50
40932;DHT22;36257;46.052;12.540;2023-05-24T04:20:10;17.90;90.10
40932;DHT22;36257;46.052;12.540;2023-05-24T04:22:37;17.90;89.80
40932;DHT22;36257;46.052;12.540;2023-05-24T04:25:03;17.90;89.90
40932;DHT22;36257;46.052;12.540;2023-05-24T04:27:29;18.00;89.70
40932;DHT22;36257;46.052;12.540;2023-05-24T04:29:55;18.00;89.70
40932;DHT22;36257;46.052;12.540;2023-05-24T04:32:21;18.10;90.00
40932;DHT22;36257;46.052;12.540;2023-05-24T04:34:48;18.00;90.70
40932;DHT22;36257;46.052;12.540;2023-05-24T04:37:14;18.10;90.20
40932;DHT22;36257;46.052;12.540;2023-05-24T04:39:42;18.10;90.40
40932;DHT22;36257;46.052;12.540;2023-05-24T04:42:08;18.20;90.10
40932;DHT22;36257;46.052;12.540;2023-05-24T04:44:34;18.20;89.70
40932;DHT22;36257;46.052;12.540;2023-05-24T04:47:00;18.30;90.40
40932;DHT22;36257;46.052;12.540;2023-05-24T04:49:28;18.40;90.00
40932;DHT22;36257;46.052;12.540;2023-05-24T04:51:55;18.50;90.50
40932;DHT22;36257;46.052;12.540;2023-05-24T04:54:21;18.50;90.70
40932;DHT22;36257;46.052;12.540;2023-05-24T04:56:47;18.50;90.90
40932;DHT22;36257;46.052;12.540;2023-05-24T04:59:12;18.50;90.90
40932;DHT22;36257;46.052;12.540;2023-05-24T05:01:38;18.50;91.80
40932;DHT22;36257;46.052;12.540;2023-05-24T05:04:04;18.50;91.60
40932;DHT22;36257;46.052;12.540;2023-05-24T05:06:30;18.50;91.60
40932;DHT22;36257;46.052;12.540;2023-05-24T05:08:59;18.60;91.40
40932;DHT22;36257;46.052;12.540;2023-05-24T05:11:25;18.60;91.40
40932;DHT22;36257;46.052;12.540;2023-05-24T05:13:52;18.60;91.70
40932;DHT22;36257;46.052;12.540;2023-05-24T05:16:18;18.70;91.20
40932;DHT22;36257;46.052;12.540;2023-05-24T05:18:44;18.70;91.20
40932;DHT22;36257;46.052;12.540;2023-05-24T05:21:10;18.70;91.10
40932;DHT22;36257;46.052;12.540;2023-05-24T05:23:36;18.80;91.20
40932;DHT22;36257;46.052;12.540;2023-05-24T05:26:04;18.80;91.90
40932;DHT22;36257;46.052;12.540;2023-05-24T05:28:31;18.80;92.10
40932;DHT22;36257;46.052;12.540;2023-05-24T05:30:56;18.90;92.70
40932;DHT22;36257;46.052;12.540;2023-05-24T05:33:23;18.90;92.50
40932;DHT22;36257;46.052;12.540;2023-05-24T05:35:48;18.90;92.50
40932;DHT22;36257;46.052;12.540;2023-05-24T05:38:14;19.00;92.30
40932;DHT22;36257;46.052;12.540;2023-05-24T05:40:40;19.00;92.50
40932;DHT22;36257;46.052;12.540;2023-05-24T05:43:05;19.00;92.90
40932;DHT22;36257;46.052;12.540;2023-05-24T05:45:32;19.00;92.80
40932;DHT22;36257;46.052;12.540;2023-05-24T05:47:58;19.10;92.50
40932;DHT22;36257;46.052;12.540;2023-05-24T05:50:24;19.10;92.50
40932;DHT22;36257;46.052;12.540;2023-05-24T05:52:49;19.20;92.80
40932;DHT22;36257;46.052;12.540;2023-05-24T05:55:15;19.30;92.70
40932;DHT22;36257;46.052;12.540;2023-05-24T05:57:41;19.40;92.50
40932;DHT22;36257;46.052;12.540;2023-05-24T06:00:08;19.40;91.60
40932;DHT22;36257;46.052;12.540;2023-05-24T06:02:34;19.50;91.20
40932;DHT22;36257;46.052;12.540;2023-05-24T06:04:59;19.60;91.70
40932;DHT22;36257;46.052;12.540;2023-05-24T06:07:25;19.70;91.50
40932;DHT22;36257;46.052;12.540;2023-05-24T06:09:51;19.70;90.60
40932;DHT22;36257;46.052;12.540;2023-05-24T06:12:16;19.70;91.00
40932;DHT22;36257;46.052;12.540;2023-05-24T06:14:42;19.80;91.00
40932;DHT22;36257;46.052;12.540;2023-05-24T06:17:08;19.80;91.00
40932;DHT22;36257;46.052;12.540;2023-05-24T06:19:34;19.80;90.80
40932;DHT22;36257;46.052;12.540;2023-05-24T06:22:00;19.80;89.90
40932;DHT22;36257;46.052;12.540;2023-05-24T06:24:25;19.80;88.90
40932;DHT22;36257;46.052;12.540;2023-05-24T06:26:52;19.70;92.00
40932;DHT22;36257;46.052;12.540;2023-05-24T06:29:19;19.60;93.50
40932;DHT22;36257;46.052;12.540;2023-05-24T06:31:46;19.50;95.30
40932;DHT22;36257;46.052;12.540;2023-05-24T06:34:15;19.40;95.80
40932;DHT22;36257;46.052;12.540;2023-05-24T06:36:42;19.30;97.60
40932;DHT22;36257;46.052;12.540;2023-05-24T06:39:09;19.10;99.40
40932;DHT22;36257;46.052;12.540;2023-05-24T06:41:35;19.00;99.90
40932;DHT22;36257;46.052;12.540;2023-05-24T06:44:01;18.70;99.90
40932;DHT22;36257;46.052;12.540;2023-05-24T06:46:27;18.40;99.90
40932;DHT22;36257;46.052;12.540;2023-05-24T06:48:52;18.30;99.90
40932;DHT22;36257;46.052;12.540;2023-05-24T06:51:18;18.20;99.90
40932;DHT22;36257;46.052;12.540;2023-05-24T06:53:43;18.20;99.90
40932;DHT22;36257;46.052;12.540;2023-05-24T06:56:09;18.10;99.90
40932;DHT22;36257;46.052;12.540;2023-05-24T06:58:35;18.10;99.90
40932;DHT22;36257;46.052;12.540;2023-05-24T07:01:01;18.10;99.90
40932;DHT22;36257;46.052;12.540;2023-05-24T07:03:29;18.00;99.90
40932;DHT22;36257;46.052;12.540;2023-05-24T07:05:55;18.00;99.90
40932;DHT22;36257;46.052;12.540;2023-05-24T07:08:21;18.00;99.90
40932;DHT22;36257;46.052;12.540;2023-05-24T07:10:47;17.80;99.90
40932;DHT22;36257;46.052;12.540;2023-05-24T07:13:12;17.70;99.90
40932;DHT22;36257;46.052;12.540;2023-05-24T07:15:41;17.60;99.90
40932;DHT22;36257;46.052;12.540;2023-05-24T07:18:07;17.60;99.90
40932;DHT22;36257;46.052;12.540;2023-05-24T07:20:32;17.50;99.90
40932;DHT22;36257;46.052;12.540;2023-05-24T07:22:59;17.40;99.90
40932;DHT22;36257;46.052;12.540;2023-05-24T07:25:25;17.30;99.90
40932;DHT22;36257;46.052;12.540;2023-05-24T07:27:51;17.30;99.90
40932;DHT22;36257;46.052;12.540;2023-05-24T07:30:17;17.20;99.90
40932;DHT22;36257;46.052;12.540;2023-05-24T07:32:43;17.20;99.90
40932;DHT22;36257;46.052;12.540;2023-05-24T07:35:10;17.10;99.90
40932;DHT22;36257;46.052;12.540;2023-05-24T07:37:37;17.10;99.90
40932;DHT22;36257;46.052;12.540;2023-05-24T07:40:04;17.10;99.90
40932;DHT22;36257;46.052;12.540;2023-05-24T07:42:30;17.00;99.90
40932;DHT22;36257;46.052;12.540;2023-05-24T07:44:56;17.00;99.90
40932;DHT22;36257;46.052;12.540;2023-05-24T07:47:21;17.00;99.90
40932;DHT22;36257;46.052;12.540;2023-05-24T07:49:47;17.00;99.90
40932;DHT22;36257;46.052;12.540;2023-05-24T07:52:13;17.00;99.90
40932;DHT22;36257;46.052;12.540;2023-05-24T07:54:39;16.90;99.90
40932;DHT22;36257;46.052;12.540;2023-05-24T07:57:04;16.90;99.90
40932;DHT22;36257;46.052;12.540;2023-05-24T07:59:32;16.90;99.90
40932;DHT22;36257;46.052;12.540;2023-05-24T08:01:57;16.90;99.90
40932;DHT22;36257;46.052;12.540;2023-05-24T08:07:06;17.00;99.90
40932;DHT22;36257;46.052;12.540;2023-05-24T08:09:32;17.00;99.90
40932;DHT22;36257;46.052;12.540;2023-05-24T08:12:04;17.00;99.90
40932;DHT22;36257;46.052;12.540;2023-05-24T08:14:30;17.00;99.90
40932;DHT22;36257;46.052;12.540;2023-05-24T08:16:55;17.10;99.90
40932;DHT22;36257;46.052;12.540;2023-05-24T08:19:21;17.20;99.90
40932;DHT22;36257;46.052;12.540;2023-05-24T08:21:48;17.30;99.90
40932;DHT22;36257;46.052;12.540;2023-05-24T08:24:13;17.40;99.90
40932;DHT22;36257;46.052;12.540;2023-05-24T08:26:39;17.50;99.90
40932;DHT22;36257;46.052;12.540;2023-05-24T08:29:04;17.70;99.90
40932;DHT22;36257;46.052;12.540;2023-05-24T08:31:30;17.90;99.90
40932;DHT22;36257;46.052;12.540;2023-05-24T08:33:59;18.00;99.90
40932;DHT22;36257;46.052;12.540;2023-05-24T08:36:25;18.30;99.90
40932;DHT22;36257;46.052;12.540;2023-05-24T08:38:51;18.50;99.90
40932;DHT22;36257;46.052;12.540;2023-05-24T08:41:17;18.80;99.90
40932;DHT22;36257;46.052;12.540;2023-05-24T08:43:42;19.10;99.90
40932;DHT22;36257;46.052;12.540;2023-05-24T08:46:09;19.20;99.90
40932;DHT22;36257;46.052;12.540;2023-05-24T08:48:45;19.30;99.90
40932;DHT22;36257;46.052;12.540;2023-05-24T08:51:13;19.40;99.90
40932;DHT22;36257;46.052;12.540;2023-05-24T08:53:40;19.60;99.90
40932;DHT22;36257;46.052;12.540;2023-05-24T08:56:06;20.00;99.90
40932;DHT22;36257;46.052;12.540;2023-05-24T08:58:36;20.50;99.90
40932;DHT22;36257;46.052;12.540;2023-05-24T09:01:03;20.90;99.90
40932;DHT22;36257;46.052;12.540;2023-05-24T09:03:30;21.20;99.80
40932;DHT22;36257;46.052;12.540;2023-05-24T09:05:57;21.40;98.50
40932;DHT22;36257;46.052;12.540;2023-05-24T09:08:23;21.40;96.70
40932;DHT22;36257;46.052;12.540;2023-05-24T09:10:49;21.40;96.30
40932;DHT22;36257;46.052;12.540;2023-05-24T09:13:15;21.40;96.50
40932;DHT22;36257;46.052;12.540;2023-05-24T09:15:41;21.40;96.80
40932;DHT22;36257;46.052;12.540;2023-05-24T09:18:07;21.40;97.30
40932;DHT22;36257;46.052;12.540;2023-05-24T09:20:33;21.50;96.20
40932;DHT22;36257;46.052;12.540;2023-05-24T09:22:59;21.40;95.40
40932;DHT22;36257;46.052;12.540;2023-05-24T09:25:27;21.40;95.70
40932;DHT22;36257;46.052;12.540;2023-05-24T09:27:54;21.40;97.10
40932;DHT22;36257;46.052;12.540;2023-05-24T09:30:21;21.40;92.80
40932;DHT22;36257;46.052;12.540;2023-05-24T09:32:54;21.50;93.40
40932;DHT22;36257;46.052;12.540;2023-05-24T09:35:20;21.50;93.30
40932;DHT22;36257;46.052;12.540;2023-05-24T09:37:46;21.60;92.20
40932;DHT22;36257;46.052;12.540;2023-05-24T09:40:22;21.60;91.80
40932;DHT22;36257;46.052;12.540;2023-05-24T09:42:49;21.80;92.60
40932;DHT22;36257;46.052;12.540;2023-05-24T09:45:26;21.90;92.90
40932;DHT22;36257;46.052;12.540;2023-05-24T09:47:53;22.20;92.30
40932;DHT22;36257;46.052;12.540;2023-05-24T09:50:18;22.20;90.90
40932;DHT22;36257;46.052;12.540;2023-05-24T09:52:44;22.20;90.90
40932;DHT22;36257;46.052;12.540;2023-05-24T09:55:15;22.20;90.40
40932;DHT22;36257;46.052;12.540;2023-05-24T09:57:43;22.30;90.40
40932;DHT22;36257;46.052;12.540;2023-05-24T10:00:09;22.30;89.50
40932;DHT22;36257;46.052;12.540;2023-05-24T10:02:44;22.40;89.00
40932;DHT22;36257;46.052;12.540;2023-05-24T10:05:11;22.50;87.20
40932;DHT22;36257;46.052;12.540;2023-05-24T10:23:10;22.10;94.70
40932;DHT22;36257;46.052;12.540;2023-05-24T11:12:17;25.70;87.00
40932;DHT22;36257;46.052;12.540;2023-05-24T11:14:50;26.20;83.90
40932;DHT22;36257;46.052;12.540;2023-05-24T11:17:20;26.10;82.90
40932;DHT22;36257;46.052;12.540;2023-05-24T11:20:40;25.90;84.40
40932;DHT22;36257;46.052;12.540;2023-05-24T12:20:29;27.80;75.70
40932;DHT22;36257;46.052;12.540;2023-05-24T12:23:46;28.10;79.30
40932;DHT22;36257;46.052;12.540;2023-05-24T12:35:52;28.40;72.10
40932;DHT22;36257;46.052;12.540;2023-05-24T13:18:19;27.80;72.80
40932;DHT22;36257;46.052;12.540;2023-05-24T13:20:45;28.00;72.50
40932;DHT22;36257;46.052;12.540;2023-05-24T13:25:46;28.20;68.00
40932;DHT22;36257;46.052;12.540;2023-05-24T13:28:12;28.10;70.70
40932;DHT22;36257;46.052;12.540;2023-05-24T13:30:37;28.00;71.50
40932;DHT22;36257;46.052;12.540;2023-05-24T13:33:03;28.10;76.20
40932;DHT22;36257;46.052;12.540;2023-05-24T13:35:29;28.20;73.20
40932;DHT22;36257;46.052;12.540;2023-05-24T13:37:55;27.90;68.60
40932;DHT22;36257;46.052;12.540;2023-05-24T13:40:22;27.90;72.50
40932;DHT22;36257;46.052;12.540;2023-05-24T13:42:50;28.20;70.50
40932;DHT22;36257;46.052;12.540;2023-05-24T13:45:15;28.40;67.90
40932;DHT22;36257;46.052;12.540;2023-05-24T13:47:41;28.50;68.90
40932;DHT22;36257;46.052;12.540;2023-05-24T13:53:06;28.50;68.50
40932;DHT22;36257;46.052;12.540;2023-05-24T13:55:33;28.60;66.90
40932;DHT22;36257;46.052;12.540;2023-05-24T13:58:00;28.60;64.90
40932;DHT22;36257;46.052;12.540;2023-05-24T14:00:26;28.60;64.20
40932;DHT22;36257;46.052;12.540;2023-05-24T14:02:52;28.70;64.30
40932;DHT22;36257;46.052;12.540;2023-05-24T14:05:19;28.60;63.20
40932;DHT22;36257;46.052;12.540;2023-05-24T14:07:45;28.50;63.20
40932;DHT22;36257;46.052;12.540;2023-05-24T14:10:11;28.40;65.30
40932;DHT22;36257;46.052;12.540;2023-05-24T14:12:37;28.30;64.50
40932;DHT22;36257;46.052;12.540;2023-05-24T14:15:03;28.40;64.40
40932;DHT22;36257;46.052;12.540;2023-05-24T14:17:30;28.20;64.50
40932;DHT22;36257;46.052;12.540;2023-05-24T14:19:56;28.00;63.30
40932;DHT22;36257;46.052;12.540;2023-05-24T14:22:22;27.80;66.40
40932;DHT22;36257;46.052;12.540;2023-05-24T14:24:50;27.60;64.80
40932;DHT22;36257;46.052;12.540;2023-05-24T14:27:16;27.40;65.00
40932;DHT22;36257;46.052;12.540;2023-05-24T14:29:41;27.30;66.90
40932;DHT22;36257;46.052;12.540;2023-05-24T14:32:07;27.20;66.40
40932;DHT22;36257;46.052;12.540;2023-05-24T14:34:34;27.20;65.40
40932;DHT22;36257;46.052;12.540;2023-05-24T14:37:01;27.30;68.40
40932;DHT22;36257;46.052;12.540;2023-05-24T14:39:27;27.50;68.70
40932;DHT22;36257;46.052;12.540;2023-05-24T14:41:52;27.50;64.50
40932;DHT22;36257;46.052;12.540;2023-05-24T14:44:18;27.20;64.80
40932;DHT22;36257;46.052;12.540;2023-05-24T14:46:45;27.10;65.50
40932;DHT22;36257;46.052;12.540;2023-05-24T14:49:11;27.00;66.30
40932;DHT22;36257;46.052;12.540;2023-05-24T14:51:37;26.90;66.80
40932;DHT22;36257;46.052;12.540;2023-05-24T14:54:02;27.00;66.80
40932;DHT22;36257;46.052;12.540;2023-05-24T14:56:29;26.90;65.20
40932;DHT22;36257;46.052;12.540;2023-05-24T14:58:54;26.80;66.50
40932;DHT22;36257;46.052;12.540;2023-05-24T15:01:20;26.70;68.00
40932;DHT22;36257;46.052;12.540;2023-05-24T15:03:46;26.70;67.70
40932;DHT22;36257;46.052;12.540;2023-05-24T15:06:11;26.80;68.40
40932;DHT22;36257;46.052;12.540;2023-05-24T15:08:37;26.80;69.40
40932;DHT22;36257;46.052;12.540;2023-05-24T15:11:03;26.80;65.50
40932;DHT22;36257;46.052;12.540;2023-05-24T15:13:30;26.70;67.30
40932;DHT22;36257;46.052;12.540;2023-05-24T15:15:56;26.70;70.60
40932;DHT22;36257;46.052;12.540;2023-05-24T15:18:29;26.70;68.10
40932;DHT22;36257;46.052;12.540;2023-05-24T15:20:55;26.60;68.90
40932;DHT22;36257;46.052;12.540;2023-05-24T15:23:21;26.70;69.30
40932;DHT22;36257;46.052;12.540;2023-05-24T15:25:46;26.70;69.00
40932;DHT22;36257;46.052;12.540;2023-05-24T15:28:12;26.90;68.70
40932;DHT22;36257;46.052;12.540;2023-05-24T15:30:41;27.00;66.40
40932;DHT22;36257;46.052;12.540;2023-05-24T15:33:12;27.00;65.80
40932;DHT22;36257;46.052;12.540;2023-05-24T15:35:37;26.90;69.40
40932;DHT22;36257;46.052;12.540;2023-05-24T15:38:04;26.80;70.00
40932;DHT22;36257;46.052;12.540;2023-05-24T15:40:29;26.80;70.90
40932;DHT22;36257;46.052;12.540;2023-05-24T15:42:55;26.70;68.50
40932;DHT22;36257;46.052;12.540;2023-05-24T15:45:21;26.80;69.80
40932;DHT22;36257;46.052;12.540;2023-05-24T15:47:46;26.80;69.60
40932;DHT22;36257;46.052;12.540;2023-05-24T15:50:12;26.60;70.70
40932;DHT22;36257;46.052;12.540;2023-05-24T15:52:37;26.50;69.50
40932;DHT22;36257;46.052;12.540;2023-05-24T15:55:03;26.40;69.30
40932;DHT22;36257;46.052;12.540;2023-05-24T15:57:30;26.30;70.30
40932;DHT22;36257;46.052;12.540;2023-05-24T15:59:55;26.20;69.90
40932;DHT22;36257;46.052;12.540;2023-05-24T16:02:21;26.20;69.30
40932;DHT22;36257;46.052;12.540;2023-05-24T16:04:48;26.10;69.80
40932;DHT22;36257;46.052;12.540;2023-05-24T16:07:14;26.00;69.90
40932;DHT22;36257;46.052;12.540;2023-05-24T16:09:39;25.90;70.30
40932;DHT22;36257;46.052;12.540;2023-05-24T16:12:06;25.90;69.90
40932;DHT22;36257;46.052;12.540;2023-05-24T16:14:32;25.80;69.00
40932;DHT22;36257;46.052;12.540;2023-05-24T16:16:57;25.70;70.60
40932;DHT22;36257;46.052;12.540;2023-05-24T16:19:23;25.80;71.00
40932;DHT22;36257;46.052;12.540;2023-05-24T16:21:49;25.70;72.00
40932;DHT22;36257;46.052;12.540;2023-05-24T16:24:15;25.70;71.60
40932;DHT22;36257;46.052;12.540;2023-05-24T16:26:41;25.70;72.50
40932;DHT22;36257;46.052;12.540;2023-05-24T16:29:06;25.70;72.80
40932;DHT22;36257;46.052;12.540;2023-05-24T16:31:34;25.70;73.10
40932;DHT22;36257;46.052;12.540;2023-05-24T16:34:01;25.60;73.10
40932;DHT22;36257;46.052;12.540;2023-05-24T16:36:27;25.60;72.50
40932;DHT22;36257;46.052;12.540;2023-05-24T16:38:53;25.60;73.00
40932;DHT22;36257;46.052;12.540;2023-05-24T16:41:18;25.60;72.80
40932;DHT22;36257;46.052;12.540;2023-05-24T16:43:44;25.60;73.40
40932;DHT22;36257;46.052;12.540;2023-05-24T16:46:09;25.60;73.30
40932;DHT22;36257;46.052;12.540;2023-05-24T16:48:35;25.70;73.90
40932;DHT22;36257;46.052;12.540;2023-05-24T16:51:01;25.60;73.80
40932;DHT22;36257;46.052;12.540;2023-05-24T16:53:27;25.60;74.50
40932;DHT22;36257;46.052;12.540;2023-05-24T16:55:54;25.50;72.90
40932;DHT22;36257;46.052;12.540;2023-05-24T16:58:25;25.60;73.50
40932;DHT22;36257;46.052;12.540;2023-05-24T17:00:53;25.50;74.70
40932;DHT22;36257;46.052;12.540;2023-05-24T17:03:20;25.50;74.90
40932;DHT22;36257;46.052;12.540;2023-05-24T17:05:55;25.40;74.70
40932;DHT22;36257;46.052;12.540;2023-05-24T17:08:21;25.40;75.00
40932;DHT22;36257;46.052;12.540;2023-05-24T17:10:48;25.30;75.10
40932;DHT22;36257;46.052;12.540;2023-05-24T17:13:20;25.30;76.10
40932;DHT22;36257;46.052;12.540;2023-05-24T17:15:46;25.30;76.10
40932;DHT22;36257;46.052;12.540;2023-05-24T17:18:12;25.30;76.30
40932;DHT22;36257;46.052;12.540;2023-05-24T17:20:37;25.20;76.20
40932;DHT22;36257;46.052;12.540;2023-05-24T17:23:03;25.10;76.10
40932;DHT22;36257;46.052;12.540;2023-05-24T17:25:28;24.90;76.80
40932;DHT22;36257;46.052;12.540;2023-05-24T17:27:54;24.80;77.60
40932;DHT22;36257;46.052;12.540;2023-05-24T17:30:22;24.70;79.00
40932;DHT22;36257;46.052;12.540;2023-05-24T17:32:48;24.60;81.40
40932;DHT22;36257;46.052;12.540;2023-05-24T17:35:14;24.50;83.00
40932;DHT22;36257;46.052;12.540;2023-05-24T17:37:39;24.40;84.00
40932;DHT22;36257;46.052;12.540;2023-05-24T17:40:06;24.40;86.00
40932;DHT22;36257;46.052;12.540;2023-05-24T17:42:32;24.10;88.00
40932;DHT22;36257;46.052;12.540;2023-05-24T17:44:57;23.90;88.00
40932;DHT22;36257;46.052;12.540;2023-05-24T17:47:23;23.70;88.40
40932;DHT22;36257;46.052;12.540;2023-05-24T17:49:49;23.60;89.00
40932;DHT22;36257;46.052;12.540;2023-05-24T17:52:14;23.50;90.40
40932;DHT22;36257;46.052;12.540;2023-05-24T17:54:40;23.30;92.60
40932;DHT22;36257;46.052;12.540;2023-05-24T17:57:06;23.10;93.70
40932;DHT22;36257;46.052;12.540;2023-05-24T17:59:32;23.00;91.90
40932;DHT22;36257;46.052;12.540;2023-05-24T18:01:58;22.90;91.00
40932;DHT22;36257;46.052;12.540;2023-05-24T18:04:23;22.70;91.90
40932;DHT22;36257;46.052;12.540;2023-05-24T18:06:49;22.60;91.80
40932;DHT22;36257;46.052;12.540;2023-05-24T18:09:14;22.60;92.40
40932;DHT22;36257;46.052;12.540;2023-05-24T18:11:41;22.60;92.90
40932;DHT22;36257;46.052;12.540;2023-05-24T18:14:06;22.50;93.80
40932;DHT22;36257;46.052;12.540;2023-05-24T18:16:32;22.50;93.70
40932;DHT22;36257;46.052;12.540;2023-05-24T18:18:58;22.40;93.90
40932;DHT22;36257;46.052;12.540;2023-05-24T18:21:23;22.30;92.70
40932;DHT22;36257;46.052;12.540;2023-05-24T18:23:49;22.30;92.70